createdAt,value
2022-12-15T00:00:24.497Z,18.77
2022-12-15T00:03:11.009Z,17.70
2022-12-15T00:05:57.209Z,19.43
2022-12-15T00:08:46.317Z,18.77
2022-12-15T00:11:32.611Z,19.33
2022-12-15T00:14:19.110Z,18.57
2022-12-15T00:17:05.404Z,19.20
2022-12-15T00:19:51.778Z,17.23
2022-12-15T00:22:38.149Z,17.57
2022-12-15T00:25:31.080Z,18.13
2022-12-15T00:28:17.364Z,17.23
2022-12-15T00:31:03.807Z,20.23
2022-12-15T00:33:49.896Z,15.80
2022-12-15T00:36:36.576Z,18.43
2022-12-15T00:39:05.271Z,17.43
2022-12-15T00:41:35.179Z,17.60
2022-12-15T00:44:03.699Z,15.73
2022-12-15T00:46:57.881Z,15.00
2022-12-15T00:49:45.585Z,13.90
2022-12-15T00:52:32.486Z,12.40
2022-12-15T00:55:18.618Z,11.13
2022-12-15T00:58:06.055Z,11.47
2022-12-15T01:00:52.351Z,11.07
2022-12-15T01:03:40.925Z,10.07
2022-12-15T01:06:28.019Z,10.97
2022-12-15T01:09:14.591Z,10.83
2022-12-15T01:12:01.117Z,10.70
2022-12-15T01:14:49.601Z,11.43
2022-12-15T01:17:36.007Z,10.37
2022-12-15T01:20:20.586Z,10.87
2022-12-15T01:22:50.633Z,11.30
2022-12-15T01:25:21.000Z,11.93
2022-12-15T01:27:49.681Z,14.97
2022-12-15T01:30:22.574Z,16.70
2022-12-15T01:32:51.315Z,13.90
2022-12-15T01:35:20.586Z,17.23
2022-12-15T01:37:50.101Z,13.80
2022-12-15T01:40:38.355Z,11.63
2022-12-15T01:43:13.473Z,9.70
2022-12-15T01:45:59.493Z,10.53
2022-12-15T01:48:37.239Z,9.90
2022-12-15T01:51:16.765Z,9.67
2022-12-15T01:53:51.462Z,8.93
2022-12-15T01:56:21.942Z,8.87
2022-12-15T01:58:54.876Z,7.83
2022-12-15T02:01:25.081Z,10.33
2022-12-15T02:03:53.641Z,10.30
2022-12-15T02:06:23.209Z,12.13
2022-12-15T02:08:54.922Z,14.57
2022-12-15T02:11:45.891Z,16.27
2022-12-15T02:14:20.125Z,17.50
2022-12-15T02:17:09.623Z,18.80
2022-12-15T02:20:27.243Z,17.07
2022-12-15T02:23:36.990Z,14.73
2022-12-15T02:26:53.734Z,14.87
2022-12-15T02:29:53.850Z,19.80
2022-12-15T02:32:27.911Z,16.03
2022-12-15T02:34:59.714Z,13.20
2022-12-15T02:37:32.834Z,14.03
2022-12-15T02:40:01.836Z,13.13
2022-12-15T02:42:31.880Z,11.93
2022-12-15T02:45:04.457Z,12.80
2022-12-15T02:47:40.235Z,18.63
2022-12-15T02:50:28.281Z,15.33
2022-12-15T02:53:10.610Z,13.90
2022-12-15T02:55:50.395Z,14.00
2022-12-15T02:58:28.453Z,13.33
2022-12-15T03:01:04.213Z,12.20
2022-12-15T03:03:37.457Z,14.07
2022-12-15T03:06:06.853Z,13.37
2022-12-15T03:08:35.183Z,12.73
2022-12-15T03:11:03.847Z,14.40
2022-12-15T03:13:32.570Z,12.90
2022-12-15T03:16:01.902Z,12.77
2022-12-15T03:18:30.341Z,12.63
2022-12-15T03:21:00.172Z,13.37
2022-12-15T03:23:28.991Z,12.87
2022-12-15T03:25:58.058Z,12.57
2022-12-15T03:28:26.422Z,13.33
2022-12-15T03:30:54.760Z,13.07
2022-12-15T03:33:23.636Z,13.00
2022-12-15T03:35:52.559Z,13.23
2022-12-15T03:38:22.404Z,12.40
2022-12-15T03:40:50.876Z,13.23
2022-12-15T03:43:19.440Z,12.20
2022-12-15T03:45:47.864Z,12.40
2022-12-15T03:48:16.563Z,12.07
2022-12-15T03:50:45.708Z,10.30
2022-12-15T03:53:14.090Z,11.77
2022-12-15T03:55:43.980Z,12.27
2022-12-15T03:58:12.741Z,11.43
2022-12-15T04:00:41.148Z,11.90
2022-12-15T04:03:10.890Z,13.03
2022-12-15T04:05:40.767Z,14.07
2022-12-15T04:08:09.402Z,18.63
2022-12-15T04:10:37.898Z,19.27
2022-12-15T04:13:09.501Z,16.63
2022-12-15T04:15:39.462Z,16.30
2022-12-15T04:18:11.062Z,15.50
2022-12-15T04:20:39.303Z,15.73
2022-12-15T04:23:08.969Z,13.97
2022-12-15T04:25:55.900Z,16.90
2022-12-15T04:28:43.593Z,18.23
2022-12-15T04:31:33.093Z,15.97
2022-12-15T04:34:21.326Z,15.27
2022-12-15T04:37:10.269Z,17.20
2022-12-15T04:39:58.180Z,17.27
2022-12-15T04:42:44.949Z,15.90
2022-12-15T04:45:32.843Z,15.30
2022-12-15T04:48:19.057Z,16.40
2022-12-15T04:51:05.069Z,14.53
2022-12-15T04:53:50.960Z,15.50
2022-12-15T04:56:37.016Z,13.07
2022-12-15T04:59:23.221Z,17.80
2022-12-15T05:02:10.424Z,15.73
2022-12-15T05:04:56.738Z,14.73
2022-12-15T05:07:44.155Z,15.80
2022-12-15T05:10:30.809Z,19.77
2022-12-15T05:13:23.410Z,23.67
2022-12-15T05:16:09.668Z,24.50
2022-12-15T05:18:56.918Z,23.57
2022-12-15T05:21:43.331Z,24.70
2022-12-15T05:24:29.235Z,23.90
2022-12-15T05:27:15.119Z,22.23
2022-12-15T05:30:01.122Z,22.67
2022-12-15T05:32:33.385Z,18.27
2022-12-15T05:35:03.548Z,17.80
2022-12-15T05:37:32.003Z,15.63
2022-12-15T05:40:00.451Z,14.77
2022-12-15T05:42:28.842Z,17.63
2022-12-15T05:44:57.592Z,17.90
2022-12-15T05:47:26.519Z,20.30
2022-12-15T05:49:55.055Z,24.17
2022-12-15T05:52:24.941Z,21.70
2022-12-15T05:54:53.603Z,17.50
2022-12-15T05:57:22.281Z,17.27
2022-12-15T05:59:50.909Z,16.87
2022-12-15T06:02:19.376Z,19.57
2022-12-15T06:04:48.300Z,74.87
2022-12-15T06:07:16.839Z,73.30
2022-12-15T06:09:46.717Z,129.37
2022-12-15T06:12:15.180Z,111.47
2022-12-15T06:14:43.844Z,104.20
2022-12-15T06:17:13.532Z,70.37
2022-12-15T06:19:42.193Z,71.30
2022-12-15T06:22:10.753Z,65.80
2022-12-15T06:24:39.569Z,50.03
2022-12-15T06:27:09.891Z,40.47
2022-12-15T06:29:38.304Z,38.97
2022-12-15T06:32:06.892Z,35.60
2022-12-15T06:34:37.138Z,34.30
2022-12-15T06:37:05.723Z,34.07
2022-12-15T06:39:34.184Z,31.83
2022-12-15T06:42:02.713Z,29.13
2022-12-15T06:44:32.919Z,26.43
2022-12-15T06:47:01.474Z,25.03
2022-12-15T06:49:29.907Z,22.53
2022-12-15T06:51:58.309Z,20.90
2022-12-15T06:54:26.768Z,17.57
2022-12-15T06:56:55.236Z,21.47
2022-12-15T06:59:23.720Z,22.47
2022-12-15T07:01:54.877Z,24.47
2022-12-15T07:04:24.013Z,20.13
2022-12-15T07:06:52.658Z,19.00
2022-12-15T07:09:21.258Z,16.57
2022-12-15T07:11:51.713Z,16.47
2022-12-15T07:14:20.245Z,15.10
2022-12-15T07:16:48.751Z,14.17
2022-12-15T07:19:19.117Z,14.13
2022-12-15T07:21:47.753Z,14.57
2022-12-15T07:24:21.386Z,14.83
2022-12-15T07:26:50.392Z,18.83
2022-12-15T07:29:23.231Z,21.13
2022-12-15T07:31:52.484Z,18.17
2022-12-15T07:34:22.833Z,17.27
2022-12-15T07:36:52.736Z,20.30
2022-12-15T07:39:24.801Z,20.73
2022-12-15T07:41:53.316Z,23.70
2022-12-15T07:44:22.808Z,21.97
2022-12-15T07:46:51.889Z,26.30
2022-12-15T07:49:21.970Z,26.20
2022-12-15T07:51:50.857Z,21.70
2022-12-15T07:54:19.445Z,19.63
2022-12-15T07:56:50.328Z,20.50
2022-12-15T07:59:19.934Z,20.77
2022-12-15T08:01:49.586Z,20.03
2022-12-15T08:04:18.724Z,49.57
2022-12-15T08:06:51.413Z,31.63
2022-12-15T08:09:22.732Z,33.87
2022-12-15T08:11:51.940Z,31.03
2022-12-15T08:14:21.313Z,28.20
2022-12-15T08:16:50.241Z,28.03
2022-12-15T08:19:19.292Z,26.33
2022-12-15T08:21:49.860Z,25.77
2022-12-15T08:24:19.715Z,24.60
2022-12-15T08:26:50.098Z,26.17
2022-12-15T08:32:08.177Z,20.60
2022-12-15T08:34:37.683Z,23.90
2022-12-15T08:37:07.776Z,52.53
2022-12-15T08:39:36.757Z,75.83
2022-12-15T08:42:05.572Z,73.33
2022-12-15T08:44:34.424Z,59.90
2022-12-15T08:47:03.042Z,37.40
2022-12-15T08:49:35.589Z,34.53
2022-12-15T08:52:04.102Z,33.63
2022-12-15T08:54:34.978Z,35.60
2022-12-15T08:57:03.637Z,34.17
2022-12-15T08:59:32.601Z,34.63
2022-12-15T09:02:04.463Z,35.13
2022-12-15T09:04:35.398Z,26.13
2022-12-15T09:07:04.726Z,23.30
2022-12-15T09:09:34.903Z,22.67
2022-12-15T09:12:04.186Z,22.17
2022-12-15T09:14:36.568Z,22.50
2022-12-15T09:17:05.465Z,22.73
2022-12-15T09:19:35.154Z,23.90
2022-12-15T09:22:05.394Z,23.93
2022-12-15T09:24:35.829Z,25.67
2022-12-15T09:27:05.721Z,25.67
2022-12-15T09:29:38.437Z,27.73
2022-12-15T09:32:13.674Z,26.87
2022-12-15T09:34:43.213Z,27.17
2022-12-15T09:37:11.800Z,23.97
2022-12-15T09:39:43.779Z,23.93
2022-12-15T09:42:26.086Z,24.60
2022-12-15T09:45:02.971Z,25.80
2022-12-15T09:47:41.082Z,25.00
2022-12-15T09:50:14.177Z,22.00
2022-12-15T09:52:49.855Z,22.20
2022-12-15T09:55:23.388Z,23.30
2022-12-15T09:57:57.311Z,23.00
2022-12-15T10:00:30.188Z,24.63
2022-12-15T10:03:19.640Z,24.53
2022-12-15T10:06:16.597Z,28.50
2022-12-15T10:12:08.705Z,28.57
2022-12-15T10:14:44.952Z,27.80
2022-12-15T10:17:24.055Z,27.33
2022-12-15T10:20:05.870Z,32.30
2022-12-15T10:22:38.235Z,34.70
2022-12-15T10:25:27.435Z,32.03
2022-12-15T10:28:23.330Z,29.97
2022-12-15T10:31:00.009Z,29.10
2022-12-15T10:33:34.570Z,35.03
2022-12-15T10:36:07.702Z,32.50
2022-12-15T10:38:38.673Z,32.70
2022-12-15T10:41:09.842Z,34.90
2022-12-15T10:43:42.029Z,41.23
2022-12-15T10:46:15.697Z,42.07
2022-12-15T10:48:50.273Z,50.07
2022-12-15T10:51:29.151Z,47.73
2022-12-15T10:54:10.045Z,42.40
2022-12-15T10:57:00.774Z,39.07
2022-12-15T10:59:42.262Z,34.83
2022-12-15T11:02:36.159Z,37.00
2022-12-15T11:05:16.953Z,37.77
2022-12-15T11:07:51.838Z,39.80
2022-12-15T11:10:27.376Z,37.43
2022-12-15T11:12:59.778Z,41.27
2022-12-15T11:15:40.805Z,42.90
2022-12-15T11:18:22.960Z,41.00
2022-12-15T11:21:00.374Z,41.20
2022-12-15T11:23:48.781Z,42.67
2022-12-15T11:26:30.668Z,40.73
2022-12-15T11:29:08.650Z,44.17
2022-12-15T11:31:41.775Z,43.53
2022-12-15T11:34:18.860Z,39.47
2022-12-15T11:37:19.126Z,43.20
2022-12-15T11:40:05.993Z,47.37
2022-12-15T11:42:53.501Z,50.57
2022-12-15T11:45:31.966Z,43.47
2022-12-15T11:48:17.674Z,45.67
2022-12-15T11:50:59.242Z,45.20
2022-12-15T11:54:01.420Z,70.37
2022-12-15T11:56:33.631Z,46.50
2022-12-15T11:59:26.848Z,42.57
2022-12-15T12:02:13.072Z,50.50
2022-12-15T12:05:00.999Z,49.73
2022-12-15T12:07:45.081Z,54.40
2022-12-15T12:10:31.655Z,56.27
2022-12-15T12:13:23.114Z,52.27
2022-12-15T12:16:05.910Z,52.97
2022-12-15T12:18:42.778Z,47.20
2022-12-15T12:21:17.315Z,54.37
2022-12-15T12:23:53.488Z,50.00
2022-12-15T12:26:28.091Z,47.13
2022-12-15T12:29:04.047Z,48.40
2022-12-15T12:31:45.402Z,44.83
2022-12-15T12:34:27.302Z,41.63
2022-12-15T12:37:02.655Z,40.83
2022-12-15T12:39:33.674Z,43.67
2022-12-15T12:42:07.410Z,43.03
2022-12-15T12:44:39.450Z,41.17
2022-12-15T12:47:15.787Z,43.87
2022-12-15T12:49:50.233Z,45.40
2022-12-15T12:52:25.444Z,48.20
2022-12-15T12:55:08.157Z,46.00
2022-12-15T12:57:46.339Z,46.33
2022-12-15T13:00:22.531Z,45.17
2022-12-15T13:03:27.158Z,44.03
2022-12-15T13:05:56.397Z,41.00
2022-12-15T13:08:58.299Z,43.17
2022-12-15T13:12:20.946Z,44.43
2022-12-15T13:15:02.214Z,45.80
2022-12-15T13:17:47.659Z,46.23
2022-12-15T13:20:32.006Z,46.93
2022-12-15T13:23:39.169Z,45.80
2022-12-15T13:26:28.571Z,44.40
2022-12-15T13:29:04.589Z,45.43
2022-12-15T13:31:49.151Z,45.60
2022-12-15T13:34:40.692Z,47.73
2022-12-15T13:37:47.060Z,47.60
2022-12-15T13:40:58.421Z,49.37
2022-12-15T13:43:46.678Z,52.30
2022-12-15T13:46:21.908Z,60.57
2022-12-15T13:48:58.717Z,67.43
2022-12-15T13:51:36.640Z,61.10
2022-12-15T13:54:21.286Z,56.13
2022-12-15T13:56:59.399Z,64.93
2022-12-15T13:59:46.452Z,68.17
2022-12-15T14:02:31.916Z,65.17
2022-12-15T14:05:15.763Z,62.13
2022-12-15T14:07:54.331Z,62.33
2022-12-15T14:10:42.387Z,98.03
2022-12-15T14:13:16.320Z,107.40
2022-12-15T14:15:50.973Z,109.47
2022-12-15T14:18:29.359Z,99.90
2022-12-15T14:21:05.124Z,88.87
2022-12-15T14:24:28.511Z,66.57
2022-12-15T14:26:51.517Z,49.20
2022-12-15T14:29:20.402Z,46.80
2022-12-15T14:31:54.656Z,45.80
2022-12-15T14:34:41.541Z,45.93
2022-12-15T14:37:17.530Z,41.50
2022-12-15T14:39:51.564Z,42.20
2022-12-15T14:42:27.573Z,41.63
2022-12-15T14:44:59.468Z,41.10
2022-12-15T14:47:33.140Z,38.07
2022-12-15T14:50:11.579Z,39.37
2022-12-15T14:52:51.473Z,39.80
2022-12-15T14:55:40.634Z,39.93
2022-12-15T14:58:29.440Z,40.70
2022-12-15T15:01:07.794Z,38.97
2022-12-15T15:03:06.437Z,29.00
2022-12-15T15:03:46.638Z,38.63
2022-12-15T15:06:20.295Z,38.63
2022-12-15T15:08:53.042Z,39.77
2022-12-15T15:11:29.870Z,39.10
2022-12-15T15:14:02.017Z,39.30
2022-12-15T15:16:42.445Z,40.60
2022-12-15T15:19:24.378Z,38.97
2022-12-15T15:21:54.689Z,39.00
2022-12-15T15:24:26.468Z,40.70
2022-12-15T15:26:55.765Z,39.17
2022-12-15T15:29:44.419Z,38.90
2022-12-15T15:32:19.550Z,40.90
2022-12-15T15:34:52.394Z,39.03
2022-12-15T15:37:23.389Z,47.93
2022-12-15T15:39:58.910Z,44.83
2022-12-15T15:42:32.523Z,40.87
2022-12-15T15:45:04.980Z,36.33
2022-12-15T15:47:38.758Z,38.73
2022-12-15T15:50:27.446Z,41.50
2022-12-15T15:53:06.972Z,42.47
2022-12-15T15:55:43.472Z,42.23
2022-12-15T15:58:14.487Z,39.70
2022-12-15T16:00:44.013Z,39.23
2022-12-15T16:03:15.282Z,38.90
2022-12-15T16:05:48.702Z,39.70
2022-12-15T16:08:22.088Z,44.80
2022-12-15T16:10:54.427Z,43.07
2022-12-15T16:13:26.438Z,43.73
2022-12-15T16:15:56.986Z,48.27
2022-12-15T16:18:26.467Z,49.47
2022-12-15T16:21:07.292Z,55.40
2022-12-15T16:23:36.558Z,50.30
2022-12-15T16:26:05.885Z,56.13
2022-12-15T16:28:43.429Z,56.33
2022-12-15T16:31:32.930Z,59.47
2022-12-15T16:34:11.679Z,58.27
2022-12-15T16:36:44.359Z,58.53
2022-12-15T16:39:26.911Z,55.40
2022-12-15T16:41:57.805Z,54.23
2022-12-15T16:44:30.843Z,50.63
2022-12-15T16:47:02.880Z,59.43
2022-12-15T16:49:39.797Z,58.17
2022-12-15T16:52:20.451Z,57.43
2022-12-15T16:55:02.746Z,49.27
2022-12-15T16:57:35.080Z,52.47
2022-12-15T17:00:15.467Z,53.63
2022-12-15T17:02:49.144Z,49.20
2022-12-15T17:05:28.057Z,44.50
2022-12-15T17:08:00.337Z,44.10
2022-12-15T17:10:34.516Z,45.87
2022-12-15T17:13:33.620Z,51.53
2022-12-15T17:16:17.725Z,46.10
2022-12-15T17:18:57.254Z,48.93
2022-12-15T17:21:33.306Z,46.27
2022-12-15T17:24:10.912Z,45.07
2022-12-15T17:26:48.596Z,49.47
2022-12-15T17:29:20.577Z,41.83
2022-12-15T17:31:56.314Z,43.67
2022-12-15T17:34:32.691Z,47.07
2022-12-15T17:37:10.652Z,44.87
2022-12-15T17:39:58.415Z,42.07
2022-12-15T17:42:32.213Z,39.83
2022-12-15T17:45:06.412Z,35.07
2022-12-15T17:47:42.493Z,36.93
2022-12-15T17:50:23.357Z,39.80
2022-12-15T17:52:55.188Z,34.60
2022-12-15T17:55:35.231Z,34.37
2022-12-15T17:58:08.353Z,31.93
2022-12-15T18:00:49.027Z,30.57
2022-12-15T18:03:42.694Z,29.87
2022-12-15T18:06:18.973Z,32.63
2022-12-15T18:08:50.590Z,31.10
2022-12-15T18:11:34.452Z,30.83
2022-12-15T18:14:16.532Z,31.73
2022-12-15T18:17:19.500Z,32.10
2022-12-15T18:19:49.657Z,32.37
2022-12-15T18:22:26.025Z,36.27
2022-12-15T18:25:03.611Z,35.67
2022-12-15T18:27:45.977Z,34.83
2022-12-15T18:30:25.799Z,31.00
2022-12-15T18:33:08.441Z,31.67
2022-12-15T18:35:46.446Z,30.27
2022-12-15T18:38:20.105Z,29.57
2022-12-15T18:41:00.285Z,27.40
2022-12-15T18:43:37.055Z,31.23
2022-12-15T18:46:14.607Z,30.73
2022-12-15T18:49:01.108Z,28.23
2022-12-15T18:51:33.576Z,27.33
2022-12-15T18:54:06.558Z,24.87
2022-12-15T18:56:54.896Z,22.37
2022-12-15T18:59:46.920Z,25.33
2022-12-15T19:02:27.703Z,28.10
2022-12-15T19:05:10.382Z,29.83
2022-12-15T19:07:46.082Z,30.03
2022-12-15T19:10:23.758Z,27.17
2022-12-15T19:12:58.710Z,27.87
2022-12-15T19:15:30.331Z,27.20
2022-12-15T19:18:24.611Z,25.67
2022-12-15T19:21:13.156Z,24.37
2022-12-15T19:23:46.563Z,26.60
2022-12-15T19:26:26.620Z,25.17
2022-12-15T19:28:57.506Z,25.97
2022-12-15T19:31:31.940Z,25.50
2022-12-15T19:34:04.372Z,26.87
2022-12-15T19:36:41.566Z,30.80
2022-12-15T19:39:24.756Z,29.90
2022-12-15T19:41:54.149Z,31.73
2022-12-15T19:44:33.325Z,33.43
2022-12-15T19:47:07.095Z,31.43
2022-12-15T19:49:39.272Z,38.20
2022-12-15T19:52:21.589Z,35.63
2022-12-15T19:54:57.440Z,39.60
2022-12-15T19:57:26.745Z,34.00
2022-12-15T20:00:06.754Z,30.13
2022-12-15T20:02:40.424Z,31.50
2022-12-15T20:05:16.336Z,29.87
2022-12-15T20:07:49.142Z,26.03
2022-12-15T20:10:31.793Z,29.50
2022-12-15T20:13:09.043Z,26.53
2022-12-15T20:15:39.418Z,27.60
2022-12-15T20:18:12.715Z,26.60
2022-12-15T20:20:43.175Z,29.00
2022-12-15T20:23:21.255Z,30.13
2022-12-15T20:26:04.645Z,29.57
2022-12-15T20:28:43.701Z,29.00
2022-12-15T20:31:22.528Z,27.73
2022-12-15T20:33:55.761Z,28.70
2022-12-15T20:36:27.160Z,29.03
2022-12-15T20:39:02.323Z,25.33
2022-12-15T20:41:32.977Z,24.80
2022-12-15T20:44:02.342Z,26.93
2022-12-15T20:46:36.203Z,25.60
2022-12-15T20:49:19.714Z,25.07
2022-12-15T20:51:51.548Z,22.53
2022-12-15T20:54:27.340Z,22.53
2022-12-15T20:57:06.773Z,20.93
2022-12-15T20:59:36.905Z,22.13
2022-12-15T21:02:22.841Z,22.67
2022-12-15T21:05:03.805Z,20.93
2022-12-15T21:07:43.326Z,22.33
2022-12-15T21:10:16.091Z,21.77
2022-12-15T21:12:50.399Z,27.47
2022-12-15T21:15:24.092Z,25.07
2022-12-15T21:18:46.649Z,27.17
2022-12-15T21:21:01.930Z,29.37
2022-12-15T21:23:42.431Z,28.17
2022-12-15T21:26:16.823Z,25.67
2022-12-15T21:29:09.428Z,25.87
2022-12-15T21:31:51.634Z,23.77
2022-12-15T21:34:28.625Z,21.93
2022-12-15T21:37:08.097Z,23.47
2022-12-15T21:39:42.047Z,22.50
2022-12-15T21:42:19.788Z,23.13
2022-12-15T21:44:54.039Z,21.30
2022-12-15T21:47:52.948Z,22.00
2022-12-15T21:50:36.920Z,21.10
2022-12-15T21:53:11.131Z,21.60
2022-12-15T21:55:41.974Z,22.80
2022-12-15T21:58:20.954Z,23.70
2022-12-15T22:00:51.490Z,24.57
2022-12-15T22:03:22.880Z,26.03
2022-12-15T22:05:52.159Z,28.20
2022-12-15T22:08:25.965Z,26.70
2022-12-15T22:10:58.019Z,24.70
2022-12-15T22:13:37.020Z,25.20
2022-12-15T22:16:08.155Z,25.83
2022-12-15T22:18:38.353Z,28.70
2022-12-15T22:21:13.212Z,28.73
2022-12-15T22:23:48.268Z,27.07
2022-12-15T22:26:25.829Z,26.57
2022-12-15T22:28:57.013Z,26.97
2022-12-15T22:31:29.219Z,26.07
2022-12-15T22:34:01.256Z,26.27
2022-12-15T22:36:31.543Z,27.70
2022-12-15T22:39:07.478Z,29.73
2022-12-15T22:41:41.227Z,27.27
2022-12-15T22:44:24.850Z,26.37
2022-12-15T22:46:56.029Z,27.80
2022-12-15T22:49:33.393Z,27.80
2022-12-15T22:52:02.500Z,25.93
2022-12-15T22:54:33.505Z,26.43
2022-12-15T22:57:08.162Z,24.40
2022-12-15T22:59:43.404Z,23.73
2022-12-15T23:02:16.708Z,23.60
2022-12-15T23:04:46.455Z,22.90
2022-12-15T23:07:15.390Z,21.87
2022-12-15T23:09:45.679Z,18.77
2022-12-15T23:12:13.430Z,20.57
2022-12-15T23:14:59.264Z,19.93
2022-12-15T23:17:28.841Z,21.87
2022-12-15T23:19:57.743Z,22.13
2022-12-15T23:22:27.142Z,21.53
2022-12-15T23:24:57.848Z,21.97
2022-12-15T23:27:27.578Z,23.63
2022-12-15T23:29:56.423Z,20.37
2022-12-15T23:32:25.108Z,21.20
2022-12-15T23:34:54.548Z,21.03
2022-12-15T23:37:23.284Z,23.17
2022-12-15T23:39:51.833Z,22.13
2022-12-15T23:42:22.438Z,19.13
2022-12-15T23:44:50.981Z,24.57
2022-12-15T23:47:20.457Z,23.07
2022-12-15T23:49:49.139Z,22.23
2022-12-15T23:52:20.084Z,23.80
2022-12-15T23:54:48.488Z,22.83
2022-12-15T23:57:17.521Z,22.70
2022-12-15T23:59:47.987Z,25.30
